PWSweather.com
Personal Weather Stations
Station Observations
KMOHERMA2
Stony Hill, Hermann, MO 65041

Stony HillHermann, MO 65041

Lat: 38.527, Lon: -91.414

Elevation: 896

Station Type: Davis Vantage Pro 2

High Low Average
Temperature 63.2°F17.3°C 43.0°F6.1°C 52.1°F11.2°C
Dew Point 55.8°F13.2°C 41.4°F5.2°C 48.4°F9.1°C
Winds 22.0 mph 35.4 kmh Calm Calm 1.0 mph SSE1.6 kmh SSE
Wind Gusts 23.0 mph37.0 kmh -- 1.0 mph1.6 kmh
Humidity 95% 74% 87%
Pressure 29.95 in1014.2 mb 29.43 in996.6 mb -
Precipitation 0.56 in14.2 mm - -
Hour Temp Dew Point Humidity Winds Wind Gusts Pressure Precip Precip Rate Daily Precip Total
12:00 AM 44.1°F6.7°C 42.4°F5.8°C 94% 10.0 mph S16.1 kmh S -- 29.98 in1015.2 mb 0.15 in3.8 mm 0.00 in0.0 mm 0.15 in3.8 mm
12:05 AM 44.3°F6.8°C 42.6°F5.9°C 94% 9.0 mph SSE14.5 kmh SSE 16.0 mph25.7 kmh 29.96 in1014.6 mb 0.17 in4.3 mm 0.24 in6.1 mm 0.02 in0.5 mm
12:10 AM 44.6°F7.0°C 43.0°F6.1°C 94% 4.0 mph S6.4 kmh S -- 29.96 in1014.6 mb 0.19 in4.8 mm 0.24 in6.1 mm 0.04 in1.0 mm
12:15 AM 44.8°F7.1°C 43.5°F6.4°C 95% 6.0 mph SSE9.7 kmh SSE -- 29.96 in1014.6 mb 0.21 in5.3 mm 0.24 in6.1 mm 0.06 in1.5 mm
12:20 AM 45.0°F7.2°C 43.3°F6.3°C 94% 8.0 mph S12.9 kmh S -- 29.94 in1013.9 mb 0.23 in5.8 mm 0.24 in6.1 mm 0.08 in2.0 mm
12:25 AM 45.2°F7.3°C 43.9°F6.6°C 95% 1.0 mph SE1.6 kmh SE -- 29.93 in1013.5 mb 0.22 in5.6 mm 0.00 in0.0 mm 0.09 in2.3 mm
12:30 AM 45.4°F7.4°C 44.1°F6.7°C 95% 12.0 mph ESE19.3 kmh ESE 24.0 mph38.6 kmh 29.91 in1012.9 mb 0.23 in5.8 mm 0.12 in3.0 mm 0.10 in2.5 mm
12:35 AM 45.5°F7.5°C 44.2°F6.8°C 95% 2.0 mph SSE3.2 kmh SSE -- 29.92 in1013.2 mb 0.23 in5.8 mm 0.00 in0.0 mm 0.11 in2.8 mm
12:40 AM 45.7°F7.6°C 44.4°F6.9°C 95% 3.0 mph S4.8 kmh S -- 29.94 in1013.9 mb 0.22 in5.6 mm 0.00 in0.0 mm 0.11 in2.8 mm
12:45 AM 45.8°F7.7°C 44.4°F6.9°C 95% 11.0 mph S17.7 kmh S -- 29.95 in1014.2 mb 0.23 in5.8 mm 0.12 in3.0 mm 0.12 in3.0 mm
12:50 AM 45.9°F7.7°C 44.4°F6.9°C 95% 9.0 mph S14.5 kmh S -- 29.94 in1013.9 mb 0.19 in4.8 mm 0.00 in0.0 mm 0.12 in3.0 mm
12:55 AM 45.8°F7.7°C 44.4°F6.9°C 95% 10.0 mph S16.1 kmh S 16.0 mph25.7 kmh 29.94 in1013.9 mb 0.16 in4.1 mm 0.00 in0.0 mm 0.14 in3.6 mm
01:00 AM 45.7°F7.6°C 44.4°F6.9°C 95% 12.0 mph SSE19.3 kmh SSE -- 29.95 in1014.2 mb 0.16 in4.1 mm 0.00 in0.0 mm 0.16 in4.1 mm
01:05 AM 45.6°F7.6°C 44.4°F6.9°C 95% 5.0 mph S8.0 kmh S -- 29.95 in1014.2 mb 0.15 in3.8 mm 0.00 in0.0 mm 0.17 in4.3 mm
01:10 AM 45.4°F7.4°C 44.1°F6.7°C 95% 9.0 mph S14.5 kmh S -- 29.95 in1014.2 mb 0.17 in4.3 mm 0.24 in6.1 mm 0.21 in5.3 mm
01:15 AM 45.3°F7.4°C 44.1°F6.7°C 95% 11.0 mph S17.7 kmh S -- 29.94 in1013.9 mb 0.17 in4.3 mm 0.00 in0.0 mm 0.23 in5.8 mm
01:20 AM 45.1°F7.3°C 43.5°F6.4°C 94% 22.0 mph S35.4 kmh S 23.0 mph37.0 kmh 29.92 in1013.2 mb 0.16 in4.1 mm 0.00 in0.0 mm 0.24 in6.1 mm
01:25 AM 45.0°F7.2°C 43.3°F6.3°C 94% 11.0 mph SSE17.7 kmh SSE -- 29.91 in1012.9 mb 0.18 in4.6 mm 0.24 in6.1 mm 0.27 in6.9 mm
01:30 AM 45.0°F7.2°C 43.7°F6.5°C 95% 11.0 mph SE17.7 kmh SE -- 29.91 in1012.9 mb 0.18 in4.6 mm 0.00 in0.0 mm 0.28 in7.1 mm
01:35 AM 44.9°F7.2°C 43.7°F6.5°C 95% 9.0 mph SSE14.5 kmh SSE -- 29.91 in1012.9 mb 0.17 in4.3 mm 0.00 in0.0 mm 0.28 in7.1 mm
01:40 AM 44.8°F7.1°C 43.5°F6.4°C 95% 13.0 mph SSE20.9 kmh SSE -- 29.91 in1012.9 mb 0.18 in4.6 mm 0.12 in3.0 mm 0.29 in7.4 mm
01:45 AM 44.7°F7.1°C 43.5°F6.4°C 95% Calm Calm 14.0 mph22.5 kmh 29.91 in1012.9 mb 0.18 in4.6 mm 0.00 in0.0 mm 0.30 in7.6 mm
01:50 AM 44.6°F7.0°C 43.3°F6.3°C 95% Calm Calm -- 29.91 in1012.9 mb 0.20 in5.1 mm 0.24 in6.1 mm 0.32 in8.1 mm
01:55 AM 44.5°F6.9°C 42.8°F6.0°C 94% Calm Calm -- 29.91 in1012.9 mb 0.18 in4.6 mm 0.00 in0.0 mm 0.32 in8.1 mm
02:00 AM 44.4°F6.9°C 43.2°F6.2°C 95% Calm Calm -- 29.91 in1012.9 mb 0.16 in4.1 mm 0.00 in0.0 mm 0.32 in8.1 mm
02:05 AM 44.3°F6.8°C 43.0°F6.1°C 95% Calm Calm -- 29.90 in1012.5 mb 0.15 in3.8 mm 0.00 in0.0 mm 0.32 in8.1 mm
02:10 AM 44.1°F6.7°C 42.8°F6.0°C 95% Calm Calm 12.0 mph19.3 kmh 29.90 in1012.5 mb 0.11 in2.8 mm 0.00 in0.0 mm 0.32 in8.1 mm
02:15 AM 44.0°F6.7°C 42.8°F6.0°C 95% Calm Calm -- 29.89 in1012.2 mb 0.10 in2.5 mm 0.00 in0.0 mm 0.33 in8.4 mm
02:20 AM 43.9°F6.6°C 42.6°F5.9°C 95% Calm Calm -- 29.90 in1012.5 mb 0.09 in2.3 mm 0.00 in0.0 mm 0.33 in8.4 mm
02:25 AM 43.8°F6.6°C 42.3°F5.7°C 94% Calm Calm -- 29.90 in1012.5 mb 0.06 in1.5 mm 0.00 in0.0 mm 0.33 in8.4 mm
02:30 AM 43.7°F6.5°C 42.1°F5.6°C 94% Calm Calm -- 29.90 in1012.5 mb 0.05 in1.3 mm 0.00 in0.0 mm 0.33 in8.4 mm
02:35 AM 43.6°F6.4°C 42.3°F5.7°C 95% Calm Calm 5.0 mph8.0 kmh 29.90 in1012.5 mb 0.05 in1.3 mm 0.00 in0.0 mm 0.33 in8.4 mm
02:40 AM 43.5°F6.4°C 42.3°F5.7°C 95% Calm Calm -- 29.91 in1012.9 mb 0.04 in1.0 mm 0.00 in0.0 mm 0.33 in8.4 mm
02:45 AM 43.4°F6.3°C 42.1°F5.6°C 95% Calm Calm -- 29.90 in1012.5 mb 0.03 in0.8 mm 0.00 in0.0 mm 0.33 in8.4 mm
02:50 AM 43.4°F6.3°C 42.1°F5.6°C 95% Calm Calm -- 29.89 in1012.2 mb 0.01 in0.3 mm 0.00 in0.0 mm 0.33 in8.4 mm
02:55 AM 43.3°F6.3°C 42.1°F5.6°C 95% Calm Calm -- 29.89 in1012.2 mb 0.01 in0.3 mm 0.00 in0.0 mm 0.33 in8.4 mm
03:00 AM 43.2°F6.2°C 41.5°F5.3°C 94% Calm Calm 3.0 mph4.8 kmh 29.89 in1012.2 mb 0.01 in0.3 mm 0.00 in0.0 mm 0.33 in8.4 mm
03:05 AM 43.1°F6.2°C 41.5°F5.3°C 94% Calm Calm -- 29.88 in1011.9 mb 0.01 in0.3 mm 0.00 in0.0 mm 0.33 in8.4 mm
03:10 AM 43.1°F6.2°C 41.5°F5.3°C 94% Calm Calm -- 29.88 in1011.9 mb 0.01 in0.3 mm 0.00 in0.0 mm 0.33 in8.4 mm
03:15 AM 43.0°F6.1°C 41.4°F5.2°C 94% Calm Calm -- 29.88 in1011.9 mb 0.00 in0.0 mm 0.00 in0.0 mm 0.33 in8.4 mm
03:20 AM 43.0°F6.1°C 41.4°F5.2°C 94% Calm Calm -- 29.88 in1011.9 mb 0.00 in0.0 mm 0.00 in0.0 mm 0.33 in8.4 mm
03:25 AM 43.0°F6.1°C 41.4°F5.2°C 94% Calm Calm 2.0 mph3.2 kmh 29.88 in1011.9 mb 0.00 in0.0 mm 0.00 in0.0 mm 0.33 in8.4 mm
03:30 AM 43.0°F6.1°C 41.4°F5.2°C 94% Calm Calm -- 29.87 in1011.5 mb 0.00 in0.0 mm 0.00 in0.0 mm 0.33 in8.4 mm
03:35 AM 43.0°F6.1°C 41.4°F5.2°C 94% Calm Calm -- 29.87 in1011.5 mb 0.00 in0.0 mm 0.00 in0.0 mm 0.33 in8.4 mm
03:40 AM 43.0°F6.1°C 41.4°F5.2°C 94% Calm Calm -- 29.87 in1011.5 mb 0.00 in0.0 mm 0.00 in0.0 mm 0.33 in8.4 mm
03:45 AM 43.1°F6.2°C 41.5°F5.3°C 94% Calm Calm -- 29.86 in1011.2 mb 0.00 in0.0 mm 0.00 in0.0 mm 0.33 in8.4 mm
03:50 AM 43.1°F6.2°C 41.5°F5.3°C 94% 6.0 mph S9.7 kmh S 7.0 mph11.3 kmh 29.86 in1011.2 mb 0.00 in0.0 mm 0.00 in0.0 mm 0.33 in8.4 mm
03:55 AM 43.1°F6.2°C 41.5°F5.3°C 94% Calm Calm -- 29.85 in1010.8 mb 0.00 in0.0 mm 0.00 in0.0 mm 0.33 in8.4 mm
04:00 AM 43.2°F6.2°C 41.5°F5.3°C 94% Calm Calm -- 29.85 in1010.8 mb 0.00 in0.0 mm 0.00 in0.0 mm 0.33 in8.4 mm
04:05 AM 43.3°F6.3°C 41.7°F5.4°C 94% Calm Calm -- 29.85 in1010.8 mb 0.00 in0.0 mm 0.00 in0.0 mm 0.33 in8.4 mm
04:10 AM 43.4°F6.3°C 41.7°F5.4°C 94% Calm Calm -- 29.85 in1010.8 mb 0.00 in0.0 mm 0.00 in0.0 mm 0.33 in8.4 mm
04:15 AM 43.6°F6.4°C 41.9°F5.5°C 94% Calm Calm -- 29.84 in1010.5 mb 0.00 in0.0 mm 0.00 in0.0 mm 0.33 in8.4 mm
04:20 AM 43.7°F6.5°C 41.9°F5.5°C 93% Calm Calm -- 29.84 in1010.5 mb 0.00 in0.0 mm 0.00 in0.0 mm 0.33 in8.4 mm
04:25 AM 43.7°F6.5°C 41.9°F5.5°C 93% Calm Calm -- 29.84 in1010.5 mb 0.00 in0.0 mm 0.00 in0.0 mm 0.33 in8.4 mm
04:30 AM 43.7°F6.5°C 41.9°F5.5°C 93% Calm Calm -- 29.83 in1010.2 mb 0.00 in0.0 mm 0.00 in0.0 mm 0.33 in8.4 mm
04:35 AM 43.8°F6.6°C 41.9°F5.5°C 93% Calm Calm -- 29.83 in1010.2 mb 0.00 in0.0 mm 0.00 in0.0 mm 0.33 in8.4 mm
04:40 AM 44.0°F6.7°C 41.9°F5.5°C 92% Calm Calm -- 29.83 in1010.2 mb 0.00 in0.0 mm 0.00 in0.0 mm 0.33 in8.4 mm
04:45 AM 44.2°F6.8°C 42.1°F5.6°C 92% Calm Calm -- 29.83 in1010.2 mb 0.00 in0.0 mm 0.00 in0.0 mm 0.33 in8.4 mm
04:50 AM 44.3°F6.8°C 41.7°F5.4°C 91% Calm Calm -- 29.83 in1010.2 mb 0.00 in0.0 mm 0.00 in0.0 mm 0.33 in8.4 mm
04:55 AM 44.5°F6.9°C 41.9°F5.5°C 91% Calm Calm -- 29.82 in1009.8 mb 0.00 in0.0 mm 0.00 in0.0 mm 0.33 in8.4 mm
05:00 AM 44.6°F7.0°C 41.9°F5.5°C 90% Calm Calm -- 29.83 in1010.2 mb 0.00 in0.0 mm 0.00 in0.0 mm 0.33 in8.4 mm
05:05 AM 44.6°F7.0°C 41.9°F5.5°C 90% Calm Calm -- 29.82 in1009.8 mb 0.00 in0.0 mm 0.00 in0.0 mm 0.33 in8.4 mm
05:10 AM 44.7°F7.1°C 42.1°F5.6°C 90% Calm Calm -- 29.82 in1009.8 mb 0.00 in0.0 mm 0.00 in0.0 mm 0.33 in8.4 mm
05:15 AM 44.7°F7.1°C 41.7°F5.4°C 89% Calm Calm -- 29.82 in1009.8 mb 0.00 in0.0 mm 0.00 in0.0 mm 0.33 in8.4 mm
05:20 AM 44.8°F7.1°C 41.7°F5.4°C 89% Calm Calm -- 29.82 in1009.8 mb 0.00 in0.0 mm 0.00 in0.0 mm 0.33 in8.4 mm
05:25 AM 44.9°F7.2°C 41.9°F5.5°C 89% Calm Calm -- 29.82 in1009.8 mb 0.00 in0.0 mm 0.00 in0.0 mm 0.33 in8.4 mm
05:30 AM 45.1°F7.3°C 41.7°F5.4°C 88% Calm Calm -- 29.82 in1009.8 mb 0.00 in0.0 mm 0.00 in0.0 mm 0.33 in8.4 mm
05:35 AM 45.1°F7.3°C 41.7°F5.4°C 88% Calm Calm -- 29.82 in1009.8 mb 0.00 in0.0 mm 0.00 in0.0 mm 0.33 in8.4 mm
05:40 AM 45.2°F7.3°C 41.7°F5.4°C 88% Calm Calm -- 29.81 in1009.5 mb 0.00 in0.0 mm 0.00 in0.0 mm 0.33 in8.4 mm
05:45 AM 45.2°F7.3°C 41.7°F5.4°C 88% Calm Calm -- 29.81 in1009.5 mb 0.00 in0.0 mm 0.00 in0.0 mm 0.33 in8.4 mm
05:50 AM 45.2°F7.3°C 41.5°F5.3°C 87% Calm Calm -- 29.81 in1009.5 mb 0.00 in0.0 mm 0.00 in0.0 mm 0.33 in8.4 mm
05:55 AM 45.2°F7.3°C 41.5°F5.3°C 87% Calm Calm -- 29.81 in1009.5 mb 0.00 in0.0 mm 0.00 in0.0 mm 0.33 in8.4 mm
06:00 AM 45.2°F7.3°C 41.5°F5.3°C 87% Calm Calm -- 29.81 in1009.5 mb 0.00 in0.0 mm 0.00 in0.0 mm 0.33 in8.4 mm
06:05 AM 45.2°F7.3°C 41.5°F5.3°C 87% Calm Calm -- 29.81 in1009.5 mb 0.00 in0.0 mm 0.00 in0.0 mm 0.33 in8.4 mm
06:10 AM 45.2°F7.3°C 41.5°F5.3°C 87% Calm Calm -- 29.81 in1009.5 mb 0.00 in0.0 mm 0.00 in0.0 mm 0.33 in8.4 mm
06:15 AM 45.2°F7.3°C 41.7°F5.4°C 88% Calm Calm -- 29.80 in1009.1 mb 0.00 in0.0 mm 0.00 in0.0 mm 0.33 in8.4 mm
06:20 AM 45.3°F7.4°C 41.9°F5.5°C 88% Calm Calm -- 29.80 in1009.1 mb 0.00 in0.0 mm 0.00 in0.0 mm 0.33 in8.4 mm
06:25 AM 45.3°F7.4°C 41.9°F5.5°C 88% Calm Calm -- 29.80 in1009.1 mb 0.00 in0.0 mm 0.00 in0.0 mm 0.33 in8.4 mm
06:30 AM 45.3°F7.4°C 41.9°F5.5°C 88% Calm Calm -- 29.80 in1009.1 mb 0.00 in0.0 mm 0.00 in0.0 mm 0.33 in8.4 mm
06:35 AM 45.5°F7.5°C 42.1°F5.6°C 88% Calm Calm -- 29.79 in1008.8 mb 0.00 in0.0 mm 0.00 in0.0 mm 0.33 in8.4 mm
06:40 AM 45.7°F7.6°C 42.3°F5.7°C 88% Calm Calm -- 29.80 in1009.1 mb 0.00 in0.0 mm 0.00 in0.0 mm 0.33 in8.4 mm
06:45 AM 45.9°F7.7°C 42.4°F5.8°C 88% Calm Calm 12.0 mph19.3 kmh 29.80 in1009.1 mb 0.00 in0.0 mm 0.00 in0.0 mm 0.33 in8.4 mm
06:50 AM 46.0°F7.8°C 42.4°F5.8°C 87% Calm Calm -- 29.80 in1009.1 mb 0.00 in0.0 mm 0.00 in0.0 mm 0.33 in8.4 mm
06:55 AM 46.1°F7.8°C 42.4°F5.8°C 87% Calm Calm -- 29.80 in1009.1 mb 0.00 in0.0 mm 0.00 in0.0 mm 0.33 in8.4 mm
07:00 AM 46.2°F7.9°C 42.6°F5.9°C 87% Calm Calm -- 29.80 in1009.1 mb 0.00 in0.0 mm 0.00 in0.0 mm 0.33 in8.4 mm
07:05 AM 46.2°F7.9°C 42.6°F5.9°C 87% Calm Calm -- 29.80 in1009.1 mb 0.00 in0.0 mm 0.00 in0.0 mm 0.33 in8.4 mm
07:10 AM 46.5°F8.1°C 43.2°F6.2°C 88% Calm Calm -- 29.80 in1009.1 mb 0.00 in0.0 mm 0.00 in0.0 mm 0.33 in8.4 mm
07:15 AM 46.7°F8.2°C 43.2°F6.2°C 87% Calm Calm -- 29.80 in1009.1 mb 0.00 in0.0 mm 0.00 in0.0 mm 0.33 in8.4 mm
07:20 AM 46.8°F8.2°C 43.2°F6.2°C 87% Calm Calm -- 29.80 in1009.1 mb 0.00 in0.0 mm 0.00 in0.0 mm 0.33 in8.4 mm
07:25 AM 46.9°F8.3°C 43.3°F6.3°C 87% Calm Calm -- 29.80 in1009.1 mb 0.00 in0.0 mm 0.00 in0.0 mm 0.33 in8.4 mm
07:30 AM 47.0°F8.3°C 43.3°F6.3°C 87% Calm Calm -- 29.80 in1009.1 mb 0.00 in0.0 mm 0.00 in0.0 mm 0.33 in8.4 mm
07:35 AM 47.3°F8.5°C 43.7°F6.5°C 87% Calm Calm -- 29.80 in1009.1 mb 0.00 in0.0 mm 0.00 in0.0 mm 0.33 in8.4 mm
07:40 AM 47.5°F8.6°C 43.5°F6.4°C 86% Calm Calm -- 29.80 in1009.1 mb 0.00 in0.0 mm 0.00 in0.0 mm 0.33 in8.4 mm
07:45 AM 47.6°F8.7°C 43.7°F6.5°C 86% Calm Calm -- 29.80 in1009.1 mb 0.00 in0.0 mm 0.00 in0.0 mm 0.33 in8.4 mm
07:50 AM 47.7°F8.7°C 43.7°F6.5°C 86% Calm Calm -- 29.80 in1009.1 mb 0.00 in0.0 mm 0.00 in0.0 mm 0.33 in8.4 mm
07:55 AM 47.8°F8.8°C 43.9°F6.6°C 86% Calm Calm -- 29.80 in1009.1 mb 0.00 in0.0 mm 0.00 in0.0 mm 0.33 in8.4 mm
08:00 AM 47.8°F8.8°C 43.9°F6.6°C 86% Calm Calm -- 29.80 in1009.1 mb 0.00 in0.0 mm 0.00 in0.0 mm 0.33 in8.4 mm
08:05 AM 47.9°F8.8°C 43.9°F6.6°C 86% Calm Calm -- 29.80 in1009.1 mb 0.00 in0.0 mm 0.00 in0.0 mm 0.33 in8.4 mm
08:10 AM 47.9°F8.8°C 43.9°F6.6°C 86% Calm Calm -- 29.79 in1008.8 mb 0.00 in0.0 mm 0.00 in0.0 mm 0.33 in8.4 mm
08:15 AM 48.0°F8.9°C 43.7°F6.5°C 85% Calm Calm -- 29.79 in1008.8 mb 0.00 in0.0 mm 0.00 in0.0 mm 0.33 in8.4 mm
08:20 AM 48.2°F9.0°C 43.9°F6.6°C 85% Calm Calm -- 29.79 in1008.8 mb 0.00 in0.0 mm 0.00 in0.0 mm 0.33 in8.4 mm
08:25 AM 48.2°F9.0°C 43.9°F6.6°C 85% Calm Calm -- 29.79 in1008.8 mb 0.00 in0.0 mm 0.00 in0.0 mm 0.33 in8.4 mm
08:30 AM 48.3°F9.1°C 44.4°F6.9°C 86% Calm Calm -- 29.79 in1008.8 mb 0.00 in0.0 mm 0.00 in0.0 mm 0.33 in8.4 mm
08:35 AM 48.4°F9.1°C 44.1°F6.7°C 85% Calm Calm -- 29.79 in1008.8 mb 0.00 in0.0 mm 0.00 in0.0 mm 0.33 in8.4 mm
08:40 AM 48.5°F9.2°C 44.6°F7.0°C 86% Calm Calm -- 29.78 in1008.5 mb 0.00 in0.0 mm 0.00 in0.0 mm 0.33 in8.4 mm
08:45 AM 48.5°F9.2°C 44.6°F7.0°C 86% Calm Calm -- 29.77 in1008.1 mb 0.00 in0.0 mm 0.00 in0.0 mm 0.33 in8.4 mm
08:50 AM 48.6°F9.2°C 44.6°F7.0°C 86% Calm Calm -- 29.77 in1008.1 mb 0.00 in0.0 mm 0.00 in0.0 mm 0.33 in8.4 mm
08:55 AM 48.7°F9.3°C 44.4°F6.9°C 85% Calm Calm -- 29.78 in1008.5 mb 0.00 in0.0 mm 0.00 in0.0 mm 0.33 in8.4 mm
09:00 AM 48.9°F9.4°C 44.6°F7.0°C 85% Calm Calm -- 29.79 in1008.8 mb 0.00 in0.0 mm 0.00 in0.0 mm 0.33 in8.4 mm
09:05 AM 49.0°F9.4°C 44.6°F7.0°C 85% Calm Calm -- 29.78 in1008.5 mb 0.00 in0.0 mm 0.00 in0.0 mm 0.33 in8.4 mm
09:10 AM 49.1°F9.5°C 44.8°F7.1°C 85% Calm Calm -- 29.78 in1008.5 mb 0.00 in0.0 mm 0.00 in0.0 mm 0.33 in8.4 mm
09:15 AM 49.2°F9.6°C 45.3°F7.4°C 86% Calm Calm -- 29.78 in1008.5 mb 0.00 in0.0 mm 0.00 in0.0 mm 0.33 in8.4 mm
09:20 AM 49.3°F9.6°C 45.3°F7.4°C 86% Calm Calm -- 29.79 in1008.8 mb 0.00 in0.0 mm 0.00 in0.0 mm 0.33 in8.4 mm
09:25 AM 49.4°F9.7°C 45.5°F7.5°C 86% Calm Calm -- 29.78 in1008.5 mb 0.00 in0.0 mm 0.00 in0.0 mm 0.33 in8.4 mm
09:30 AM 49.6°F9.8°C 45.7°F7.6°C 86% Calm Calm -- 29.77 in1008.1 mb 0.00 in0.0 mm 0.00 in0.0 mm 0.33 in8.4 mm
09:35 AM 49.8°F9.9°C 45.9°F7.7°C 86% Calm Calm -- 29.76 in1007.8 mb 0.00 in0.0 mm 0.00 in0.0 mm 0.33 in8.4 mm
09:40 AM 50.0°F10.0°C 46.0°F7.8°C 86% Calm Calm -- 29.76 in1007.8 mb 0.00 in0.0 mm 0.00 in0.0 mm 0.33 in8.4 mm
09:45 AM 50.3°F10.2°C 46.4°F8.0°C 86% Calm Calm -- 29.76 in1007.8 mb 0.00 in0.0 mm 0.00 in0.0 mm 0.33 in8.4 mm
09:50 AM 50.6°F10.3°C 46.6°F8.1°C 86% Calm Calm -- 29.76 in1007.8 mb 0.00 in0.0 mm 0.00 in0.0 mm 0.33 in8.4 mm
09:55 AM 50.8°F10.4°C 46.8°F8.2°C 86% Calm Calm -- 29.76 in1007.8 mb 0.00 in0.0 mm 0.00 in0.0 mm 0.33 in8.4 mm
10:00 AM 51.1°F10.6°C 47.1°F8.4°C 86% Calm Calm -- 29.75 in1007.5 mb 0.00 in0.0 mm 0.00 in0.0 mm 0.33 in8.4 mm
10:05 AM 51.4°F10.8°C 47.5°F8.6°C 86% Calm Calm -- 29.74 in1007.1 mb 0.00 in0.0 mm 0.00 in0.0 mm 0.33 in8.4 mm
10:10 AM 51.7°F10.9°C 47.3°F8.5°C 85% Calm Calm -- 29.73 in1006.8 mb 0.00 in0.0 mm 0.00 in0.0 mm 0.33 in8.4 mm
10:15 AM 52.0°F11.1°C 47.7°F8.7°C 85% Calm Calm -- 29.73 in1006.8 mb 0.00 in0.0 mm 0.00 in0.0 mm 0.33 in8.4 mm
10:20 AM 52.4°F11.3°C 48.0°F8.9°C 85% Calm Calm -- 29.72 in1006.4 mb 0.00 in0.0 mm 0.00 in0.0 mm 0.33 in8.4 mm
10:25 AM 52.7°F11.5°C 48.0°F8.9°C 84% Calm Calm -- 29.72 in1006.4 mb 0.00 in0.0 mm 0.00 in0.0 mm 0.33 in8.4 mm
10:30 AM 52.8°F11.6°C 48.2°F9.0°C 84% Calm Calm -- 29.72 in1006.4 mb 0.00 in0.0 mm 0.00 in0.0 mm 0.33 in8.4 mm
10:35 AM 52.9°F11.6°C 48.2°F9.0°C 84% Calm Calm -- 29.71 in1006.1 mb 0.00 in0.0 mm 0.00 in0.0 mm 0.33 in8.4 mm
10:40 AM 53.2°F11.8°C 48.2°F9.0°C 83% Calm Calm -- 29.71 in1006.1 mb 0.00 in0.0 mm 0.00 in0.0 mm 0.33 in8.4 mm
10:45 AM 53.5°F11.9°C 48.4°F9.1°C 83% Calm Calm -- 29.71 in1006.1 mb 0.00 in0.0 mm 0.00 in0.0 mm 0.33 in8.4 mm
10:50 AM 53.7°F12.1°C 48.7°F9.3°C 83% Calm Calm -- 29.70 in1005.8 mb 0.00 in0.0 mm 0.00 in0.0 mm 0.33 in8.4 mm
10:55 AM 53.9°F12.2°C 48.6°F9.2°C 82% Calm Calm -- 29.70 in1005.8 mb 0.00 in0.0 mm 0.00 in0.0 mm 0.33 in8.4 mm
11:00 AM 54.1°F12.3°C 48.7°F9.3°C 82% Calm Calm -- 29.69 in1005.4 mb 0.00 in0.0 mm 0.00 in0.0 mm 0.33 in8.4 mm
11:05 AM 54.3°F12.4°C 48.9°F9.4°C 82% Calm Calm -- 29.68 in1005.1 mb 0.00 in0.0 mm 0.00 in0.0 mm 0.33 in8.4 mm
11:10 AM 54.3°F12.4°C 48.9°F9.4°C 82% Calm Calm -- 29.67 in1004.7 mb 0.00 in0.0 mm 0.00 in0.0 mm 0.33 in8.4 mm
11:15 AM 54.3°F12.4°C 48.9°F9.4°C 82% Calm Calm -- 29.67 in1004.7 mb 0.00 in0.0 mm 0.00 in0.0 mm 0.33 in8.4 mm
11:20 AM 54.4°F12.4°C 48.6°F9.2°C 81% Calm Calm -- 29.67 in1004.7 mb 0.00 in0.0 mm 0.00 in0.0 mm 0.33 in8.4 mm
11:25 AM 54.5°F12.5°C 48.7°F9.3°C 81% Calm Calm -- 29.67 in1004.7 mb 0.00 in0.0 mm 0.00 in0.0 mm 0.33 in8.4 mm
11:30 AM 54.6°F12.6°C 48.9°F9.4°C 81% Calm Calm -- 29.66 in1004.4 mb 0.00 in0.0 mm 0.00 in0.0 mm 0.33 in8.4 mm
11:35 AM 54.6°F12.6°C 48.9°F9.4°C 81% Calm Calm -- 29.67 in1004.7 mb 0.00 in0.0 mm 0.00 in0.0 mm 0.33 in8.4 mm
11:40 AM 54.6°F12.6°C 48.9°F9.4°C 81% Calm Calm -- 29.66 in1004.4 mb 0.00 in0.0 mm 0.00 in0.0 mm 0.33 in8.4 mm
11:45 AM 54.7°F12.6°C 48.9°F9.4°C 81% Calm Calm -- 29.66 in1004.4 mb 0.00 in0.0 mm 0.00 in0.0 mm 0.33 in8.4 mm
11:50 AM 54.7°F12.6°C 48.9°F9.4°C 81% Calm Calm -- 29.65 in1004.1 mb 0.00 in0.0 mm 0.00 in0.0 mm 0.33 in8.4 mm
11:55 AM 54.7°F12.6°C 48.9°F9.4°C 81% Calm Calm -- 29.65 in1004.1 mb 0.00 in0.0 mm 0.00 in0.0 mm 0.33 in8.4 mm
12:00 PM 54.9°F12.7°C 49.5°F9.7°C 82% Calm Calm -- 29.65 in1004.1 mb 0.00 in0.0 mm 0.00 in0.0 mm 0.33 in8.4 mm
12:05 PM 55.3°F12.9°C 49.5°F9.7°C 81% Calm Calm -- 29.64 in1003.7 mb 0.00 in0.0 mm 0.00 in0.0 mm 0.33 in8.4 mm
12:10 PM 55.7°F13.2°C 50.0°F10.0°C 81% Calm Calm -- 29.64 in1003.7 mb 0.00 in0.0 mm 0.00 in0.0 mm 0.33 in8.4 mm
12:15 PM 56.0°F13.3°C 49.8°F9.9°C 80% Calm Calm -- 29.63 in1003.4 mb 0.00 in0.0 mm 0.00 in0.0 mm 0.33 in8.4 mm
12:20 PM 56.0°F13.3°C 49.8°F9.9°C 80% Calm Calm -- 29.63 in1003.4 mb 0.00 in0.0 mm 0.00 in0.0 mm 0.33 in8.4 mm
12:25 PM 56.0°F13.3°C 49.8°F9.9°C 80% Calm Calm -- 29.63 in1003.4 mb 0.00 in0.0 mm 0.00 in0.0 mm 0.33 in8.4 mm
12:30 PM 56.4°F13.6°C 50.4°F10.2°C 80% Calm Calm -- 29.62 in1003.0 mb 0.00 in0.0 mm 0.00 in0.0 mm 0.33 in8.4 mm
12:35 PM 57.0°F13.9°C 50.5°F10.3°C 79% Calm Calm -- 29.61 in1002.7 mb 0.00 in0.0 mm 0.00 in0.0 mm 0.33 in8.4 mm
12:40 PM 57.4°F14.1°C 50.9°F10.5°C 79% Calm Calm -- 29.61 in1002.7 mb 0.00 in0.0 mm 0.00 in0.0 mm 0.33 in8.4 mm
12:45 PM 57.5°F14.2°C 51.1°F10.6°C 79% Calm Calm -- 29.61 in1002.7 mb 0.00 in0.0 mm 0.00 in0.0 mm 0.33 in8.4 mm
12:50 PM 57.6°F14.2°C 51.1°F10.6°C 79% Calm Calm -- 29.61 in1002.7 mb 0.00 in0.0 mm 0.00 in0.0 mm 0.33 in8.4 mm
12:55 PM 57.7°F14.3°C 51.3°F10.7°C 79% Calm Calm -- 29.61 in1002.7 mb 0.00 in0.0 mm 0.00 in0.0 mm 0.33 in8.4 mm
01:00 PM 57.7°F14.3°C 51.3°F10.7°C 79% Calm Calm -- 29.61 in1002.7 mb 0.00 in0.0 mm 0.00 in0.0 mm 0.33 in8.4 mm
01:05 PM 57.6°F14.2°C 51.1°F10.6°C 79% Calm Calm -- 29.59 in1002.0 mb 0.00 in0.0 mm 0.00 in0.0 mm 0.33 in8.4 mm
01:10 PM 57.6°F14.2°C 51.1°F10.6°C 79% Calm Calm -- 29.60 in1002.4 mb 0.00 in0.0 mm 0.00 in0.0 mm 0.33 in8.4 mm
01:15 PM 57.5°F14.2°C 51.1°F10.6°C 79% Calm Calm -- 29.60 in1002.4 mb 0.00 in0.0 mm 0.00 in0.0 mm 0.33 in8.4 mm
01:20 PM 57.5°F14.2°C 51.1°F10.6°C 79% Calm Calm -- 29.59 in1002.0 mb 0.00 in0.0 mm 0.00 in0.0 mm 0.33 in8.4 mm
01:25 PM 57.6°F14.2°C 51.1°F10.6°C 79% Calm Calm -- 29.59 in1002.0 mb 0.00 in0.0 mm 0.00 in0.0 mm 0.33 in8.4 mm
01:30 PM 57.7°F14.3°C 51.6°F10.9°C 80% Calm Calm -- 29.59 in1002.0 mb 0.00 in0.0 mm 0.00 in0.0 mm 0.33 in8.4 mm
01:35 PM 57.9°F14.4°C 51.8°F11.0°C 80% Calm Calm -- 29.59 in1002.0 mb 0.00 in0.0 mm 0.00 in0.0 mm 0.33 in8.4 mm
01:40 PM 58.1°F14.5°C 52.3°F11.3°C 81% Calm Calm -- 29.58 in1001.7 mb 0.00 in0.0 mm 0.00 in0.0 mm 0.33 in8.4 mm
01:45 PM 58.6°F14.8°C 52.9°F11.6°C 81% Calm Calm -- 29.57 in1001.4 mb 0.00 in0.0 mm 0.00 in0.0 mm 0.33 in8.4 mm
01:50 PM 59.4°F15.2°C 53.2°F11.8°C 80% Calm Calm -- 29.57 in1001.4 mb 0.00 in0.0 mm 0.00 in0.0 mm 0.33 in8.4 mm
01:55 PM 60.3°F15.7°C 53.8°F12.1°C 79% Calm Calm -- 29.56 in1001.0 mb 0.00 in0.0 mm 0.00 in0.0 mm 0.33 in8.4 mm
02:00 PM 60.8°F16.0°C 54.0°F12.2°C 78% Calm Calm -- 29.57 in1001.4 mb 0.00 in0.0 mm 0.00 in0.0 mm 0.33 in8.4 mm
02:05 PM 61.0°F16.1°C 53.8°F12.1°C 77% Calm Calm -- 29.56 in1001.0 mb 0.00 in0.0 mm 0.00 in0.0 mm 0.33 in8.4 mm
02:10 PM 61.2°F16.2°C 53.6°F12.0°C 76% Calm Calm -- 29.57 in1001.4 mb 0.00 in0.0 mm 0.00 in0.0 mm 0.33 in8.4 mm
02:15 PM 61.5°F16.4°C 54.0°F12.2°C 76% Calm Calm -- 29.56 in1001.0 mb 0.00 in0.0 mm 0.00 in0.0 mm 0.33 in8.4 mm
02:20 PM 61.6°F16.4°C 53.6°F12.0°C 75% Calm Calm -- 29.55 in1000.7 mb 0.00 in0.0 mm 0.00 in0.0 mm 0.33 in8.4 mm
02:25 PM 61.7°F16.5°C 54.1°F12.3°C 76% Calm Calm -- 29.55 in1000.7 mb 0.00 in0.0 mm 0.00 in0.0 mm 0.33 in8.4 mm
02:30 PM 61.8°F16.6°C 54.1°F12.3°C 76% Calm Calm -- 29.54 in1000.3 mb 0.00 in0.0 mm 0.00 in0.0 mm 0.33 in8.4 mm
02:35 PM 61.9°F16.6°C 54.1°F12.3°C 76% Calm Calm -- 29.54 in1000.3 mb 0.00 in0.0 mm 0.00 in0.0 mm 0.33 in8.4 mm
02:40 PM 62.1°F16.7°C 54.3°F12.4°C 76% Calm Calm -- 29.53 in1000.0 mb 0.00 in0.0 mm 0.00 in0.0 mm 0.33 in8.4 mm
02:45 PM 62.3°F16.8°C 54.1°F12.3°C 75% Calm Calm -- 29.53 in1000.0 mb 0.00 in0.0 mm 0.00 in0.0 mm 0.33 in8.4 mm
02:50 PM 62.4°F16.9°C 54.3°F12.4°C 75% Calm Calm -- 29.52 in999.7 mb 0.00 in0.0 mm 0.00 in0.0 mm 0.33 in8.4 mm
02:55 PM 62.5°F16.9°C 54.3°F12.4°C 75% Calm Calm -- 29.51 in999.3 mb 0.00 in0.0 mm 0.00 in0.0 mm 0.33 in8.4 mm
03:00 PM 62.7°F17.1°C 54.7°F12.6°C 75% Calm Calm -- 29.52 in999.7 mb 0.00 in0.0 mm 0.00 in0.0 mm 0.33 in8.4 mm
03:05 PM 62.8°F17.1°C 54.3°F12.4°C 74% Calm Calm -- 29.51 in999.3 mb 0.00 in0.0 mm 0.00 in0.0 mm 0.33 in8.4 mm
03:10 PM 62.8°F17.1°C 54.3°F12.4°C 74% Calm Calm -- 29.51 in999.3 mb 0.00 in0.0 mm 0.00 in0.0 mm 0.33 in8.4 mm
03:15 PM 63.0°F17.2°C 54.5°F12.5°C 74% Calm Calm -- 29.51 in999.3 mb 0.00 in0.0 mm 0.00 in0.0 mm 0.33 in8.4 mm
03:20 PM 63.1°F17.3°C 54.7°F12.6°C 74% Calm Calm -- 29.51 in999.3 mb 0.00 in0.0 mm 0.00 in0.0 mm 0.33 in8.4 mm
03:25 PM 63.1°F17.3°C 54.7°F12.6°C 74% Calm Calm -- 29.51 in999.3 mb 0.00 in0.0 mm 0.00 in0.0 mm 0.33 in8.4 mm
03:30 PM 63.1°F17.3°C 54.7°F12.6°C 74% Calm Calm -- 29.51 in999.3 mb 0.00 in0.0 mm 0.00 in0.0 mm 0.33 in8.4 mm
03:35 PM 63.1°F17.3°C 54.7°F12.6°C 74% Calm Calm -- 29.51 in999.3 mb 0.00 in0.0 mm 0.00 in0.0 mm 0.33 in8.4 mm
03:40 PM 63.2°F17.3°C 54.7°F12.6°C 74% Calm Calm -- 29.51 in999.3 mb 0.00 in0.0 mm 0.00 in0.0 mm 0.33 in8.4 mm
03:45 PM 63.2°F17.3°C 54.7°F12.6°C 74% Calm Calm -- 29.51 in999.3 mb 0.00 in0.0 mm 0.00 in0.0 mm 0.33 in8.4 mm
03:50 PM 63.2°F17.3°C 55.0°F12.8°C 75% Calm Calm -- 29.51 in999.3 mb 0.00 in0.0 mm 0.00 in0.0 mm 0.33 in8.4 mm
03:55 PM 63.1°F17.3°C 55.4°F13.0°C 76% Calm Calm -- 29.52 in999.7 mb 0.00 in0.0 mm 0.00 in0.0 mm 0.33 in8.4 mm
04:00 PM 62.7°F17.1°C 55.4°F13.0°C 77% Calm Calm -- 29.51 in999.3 mb 0.00 in0.0 mm 0.00 in0.0 mm 0.33 in8.4 mm
04:05 PM 62.3°F16.8°C 55.2°F12.9°C 78% Calm Calm -- 29.52 in999.7 mb 0.00 in0.0 mm 0.00 in0.0 mm 0.33 in8.4 mm
04:10 PM 61.8°F16.6°C 55.6°F13.1°C 80% Calm Calm -- 29.52 in999.7 mb 0.00 in0.0 mm 0.00 in0.0 mm 0.33 in8.4 mm
04:15 PM 61.3°F16.3°C 55.8°F13.2°C 82% Calm Calm -- 29.53 in1000.0 mb 0.00 in0.0 mm 0.00 in0.0 mm 0.33 in8.4 mm
04:20 PM 60.5°F15.8°C 55.6°F13.1°C 84% Calm Calm -- 29.53 in1000.0 mb 0.00 in0.0 mm 0.00 in0.0 mm 0.33 in8.4 mm
04:25 PM 59.8°F15.4°C 55.6°F13.1°C 86% Calm Calm -- 29.52 in999.7 mb 0.01 in0.3 mm 0.12 in3.0 mm 0.34 in8.6 mm
04:30 PM 59.1°F15.1°C 55.6°F13.1°C 88% Calm Calm -- 29.53 in1000.0 mb 0.01 in0.3 mm 0.00 in0.0 mm 0.34 in8.6 mm
04:35 PM 58.5°F14.7°C 55.6°F13.1°C 90% Calm Calm -- 29.54 in1000.3 mb 0.01 in0.3 mm 0.00 in0.0 mm 0.34 in8.6 mm
04:40 PM 57.9°F14.4°C 55.0°F12.8°C 90% Calm Calm -- 29.54 in1000.3 mb 0.03 in0.8 mm 0.24 in6.1 mm 0.36 in9.1 mm
04:45 PM 57.3°F14.1°C 54.9°F12.7°C 91% Calm Calm -- 29.54 in1000.3 mb 0.04 in1.0 mm 0.12 in3.0 mm 0.37 in9.4 mm
04:50 PM 56.5°F13.6°C 54.0°F12.2°C 91% Calm Calm -- 29.54 in1000.3 mb 0.05 in1.3 mm 0.12 in3.0 mm 0.38 in9.7 mm
04:55 PM 56.0°F13.3°C 53.4°F11.9°C 91% Calm Calm -- 29.53 in1000.0 mb 0.05 in1.3 mm 0.00 in0.0 mm 0.38 in9.7 mm
05:00 PM 55.7°F13.2°C 53.4°F11.9°C 92% Calm Calm -- 29.53 in1000.0 mb 0.05 in1.3 mm 0.00 in0.0 mm 0.38 in9.7 mm
05:05 PM 55.5°F13.1°C 53.2°F11.8°C 92% 10.0 mph S16.1 kmh S -- 29.54 in1000.3 mb 0.05 in1.3 mm 0.00 in0.0 mm 0.38 in9.7 mm
05:10 PM 55.3°F12.9°C 52.9°F11.6°C 92% Calm Calm 16.0 mph25.7 kmh 29.54 in1000.3 mb 0.06 in1.5 mm 0.12 in3.0 mm 0.39 in9.9 mm
05:15 PM 55.2°F12.9°C 53.2°F11.8°C 93% Calm Calm -- 29.54 in1000.3 mb 0.07 in1.8 mm 0.12 in3.0 mm 0.40 in10.2 mm
05:20 PM 55.1°F12.8°C 53.1°F11.7°C 93% Calm Calm -- 29.55 in1000.7 mb 0.08 in2.0 mm 0.12 in3.0 mm 0.41 in10.4 mm
05:25 PM 55.0°F12.8°C 53.1°F11.7°C 93% Calm Calm -- 29.54 in1000.3 mb 0.08 in2.0 mm 0.00 in0.0 mm 0.42 in10.7 mm
05:30 PM 55.0°F12.8°C 53.1°F11.7°C 93% Calm Calm -- 29.54 in1000.3 mb 0.09 in2.3 mm 0.12 in3.0 mm 0.43 in10.9 mm
05:35 PM 54.9°F12.7°C 52.9°F11.6°C 93% Calm Calm 5.0 mph8.0 kmh 29.54 in1000.3 mb 0.10 in2.5 mm 0.12 in3.0 mm 0.44 in11.2 mm
05:40 PM 54.8°F12.7°C 53.2°F11.8°C 94% 11.0 mph S17.7 kmh S -- 29.54 in1000.3 mb 0.10 in2.5 mm 0.00 in0.0 mm 0.46 in11.7 mm
05:45 PM 54.7°F12.6°C 53.1°F11.7°C 94% Calm Calm -- 29.54 in1000.3 mb 0.11 in2.8 mm 0.12 in3.0 mm 0.48 in12.2 mm
05:50 PM 54.6°F12.6°C 53.1°F11.7°C 94% Calm Calm -- 29.54 in1000.3 mb 0.12 in3.0 mm 0.12 in3.0 mm 0.50 in12.7 mm
05:55 PM 54.5°F12.5°C 52.9°F11.6°C 94% Calm Calm -- 29.53 in1000.0 mb 0.13 in3.3 mm 0.12 in3.0 mm 0.51 in13.0 mm
06:00 PM 54.4°F12.4°C 52.7°F11.5°C 94% Calm Calm 3.0 mph4.8 kmh 29.53 in1000.0 mb 0.14 in3.6 mm 0.01 in0.3 mm 0.52 in13.2 mm
06:05 PM 54.4°F12.4°C 52.7°F11.5°C 94% Calm Calm -- 29.52 in999.7 mb 0.15 in3.8 mm 0.12 in3.0 mm 0.53 in13.5 mm
06:10 PM 54.3°F12.4°C 52.7°F11.5°C 94% Calm Calm -- 29.50 in999.0 mb 0.15 in3.8 mm 0.00 in0.0 mm 0.54 in13.7 mm
06:15 PM 54.3°F12.4°C 52.7°F11.5°C 94% Calm Calm -- 29.50 in999.0 mb 0.14 in3.6 mm 0.00 in0.0 mm 0.54 in13.7 mm
06:20 PM 54.3°F12.4°C 52.7°F11.5°C 94% 9.0 mph S14.5 kmh S -- 29.50 in999.0 mb 0.14 in3.6 mm 0.00 in0.0 mm 0.55 in14.0 mm
06:25 PM 54.2°F12.3°C 52.5°F11.4°C 94% 7.0 mph SSW11.3 kmh SSW 19.0 mph30.6 kmh 29.50 in999.0 mb 0.13 in3.3 mm 0.00 in0.0 mm 0.55 in14.0 mm
06:30 PM 54.1°F12.3°C 52.5°F11.4°C 94% 1.0 mph S1.6 kmh S -- 29.50 in999.0 mb 0.12 in3.0 mm 0.00 in0.0 mm 0.55 in14.0 mm
06:35 PM 54.1°F12.3°C 52.5°F11.4°C 94% Calm Calm -- 29.46 in997.6 mb 0.11 in2.8 mm 0.00 in0.0 mm 0.55 in14.0 mm
06:40 PM 54.0°F12.2°C 52.3°F11.3°C 94% Calm Calm -- 29.45 in997.3 mb 0.09 in2.3 mm 0.00 in0.0 mm 0.55 in14.0 mm
06:45 PM 54.0°F12.2°C 52.3°F11.3°C 94% Calm Calm -- 29.45 in997.3 mb 0.08 in2.0 mm 0.00 in0.0 mm 0.55 in14.0 mm
06:50 PM 54.0°F12.2°C 52.3°F11.3°C 94% Calm Calm 18.0 mph29.0 kmh 29.45 in997.3 mb 0.06 in1.5 mm 0.00 in0.0 mm 0.55 in14.0 mm
06:55 PM 53.9°F12.2°C 52.3°F11.3°C 94% Calm Calm -- 29.46 in997.6 mb 0.04 in1.0 mm 0.00 in0.0 mm 0.55 in14.0 mm
07:00 PM 54.0°F12.2°C 52.3°F11.3°C 94% Calm Calm -- 29.45 in997.3 mb 0.04 in1.0 mm 0.00 in0.0 mm 0.56 in14.2 mm
07:05 PM 54.0°F12.2°C 52.3°F11.3°C 94% Calm Calm -- 29.44 in997.0 mb 0.03 in0.8 mm 0.00 in0.0 mm 0.56 in14.2 mm
07:10 PM 54.0°F12.2°C 52.3°F11.3°C 94% Calm Calm -- 29.43 in996.6 mb 0.03 in0.8 mm 0.00 in0.0 mm 0.56 in14.2 mm
07:15 PM 54.0°F12.2°C 52.3°F11.3°C 94% Calm Calm -- 29.44 in997.0 mb 0.02 in0.5 mm 0.00 in0.0 mm 0.56 in14.2 mm
07:20 PM 54.1°F12.3°C 52.5°F11.4°C 94% Calm Calm -- 29.44 in997.0 mb 0.01 in0.3 mm 0.00 in0.0 mm 0.56 in14.2 mm
07:25 PM 54.2°F12.3°C 52.5°F11.4°C 94% Calm Calm -- 29.44 in997.0 mb 0.01 in0.3 mm 0.00 in0.0 mm 0.56 in14.2 mm
07:30 PM 54.3°F12.4°C 52.7°F11.5°C 94% Calm Calm -- 29.45 in997.3 mb 0.01 in0.3 mm 0.00 in0.0 mm 0.56 in14.2 mm
07:35 PM 54.4°F12.4°C 52.7°F11.5°C 94% Calm Calm -- 29.45 in997.3 mb 0.01 in0.3 mm 0.00 in0.0 mm 0.56 in14.2 mm
07:40 PM 54.4°F12.4°C 52.7°F11.5°C 94% Calm Calm -- 29.46 in997.6 mb 0.01 in0.3 mm 0.00 in0.0 mm 0.56 in14.2 mm
07:45 PM 54.5°F12.5°C 52.9°F11.6°C 94% Calm Calm -- 29.46 in997.6 mb 0.01 in0.3 mm 0.00 in0.0 mm 0.56 in14.2 mm
07:50 PM 54.5°F12.5°C 52.9°F11.6°C 94% Calm Calm -- 29.46 in997.6 mb 0.01 in0.3 mm 0.00 in0.0 mm 0.56 in14.2 mm
07:55 PM 54.5°F12.5°C 52.5°F11.4°C 93% Calm Calm -- 29.44 in997.0 mb 0.01 in0.3 mm 0.00 in0.0 mm 0.56 in14.2 mm
08:00 PM 54.5°F12.5°C 52.5°F11.4°C 93% Calm Calm -- 29.43 in996.6 mb 0.00 in0.0 mm 0.00 in0.0 mm 0.56 in14.2 mm
08:05 PM 54.5°F12.5°C 52.5°F11.4°C 93% Calm Calm -- 29.44 in997.0 mb 0.00 in0.0 mm 0.00 in0.0 mm 0.56 in14.2 mm
08:10 PM 54.5°F12.5°C 52.5°F11.4°C 93% Calm Calm -- 29.45 in997.3 mb 0.00 in0.0 mm 0.00 in0.0 mm 0.56 in14.2 mm
08:15 PM 54.5°F12.5°C 52.5°F11.4°C 93% Calm Calm -- 29.44 in997.0 mb 0.00 in0.0 mm 0.00 in0.0 mm 0.56 in14.2 mm
08:20 PM 54.4°F12.4°C 52.3°F11.3°C 93% Calm Calm -- 29.44 in997.0 mb 0.00 in0.0 mm 0.00 in0.0 mm 0.56 in14.2 mm
08:25 PM 54.4°F12.4°C 52.3°F11.3°C 93% Calm Calm -- 29.44 in997.0 mb 0.00 in0.0 mm 0.00 in0.0 mm 0.56 in14.2 mm
08:30 PM 54.4°F12.4°C 52.3°F11.3°C 93% Calm Calm 5.0 mph8.0 kmh 29.45 in997.3 mb 0.00 in0.0 mm 0.00 in0.0 mm 0.56 in14.2 mm
08:35 PM 54.4°F12.4°C 52.3°F11.3°C 93% Calm Calm -- 29.44 in997.0 mb 0.00 in0.0 mm 0.00 in0.0 mm 0.56 in14.2 mm
08:40 PM 54.4°F12.4°C 52.3°F11.3°C 93% Calm Calm -- 29.44 in997.0 mb 0.00 in0.0 mm 0.00 in0.0 mm 0.56 in14.2 mm
08:45 PM 54.4°F12.4°C 52.3°F11.3°C 93% Calm Calm -- 29.44 in997.0 mb 0.00 in0.0 mm 0.00 in0.0 mm 0.56 in14.2 mm
08:50 PM 54.4°F12.4°C 52.3°F11.3°C 93% Calm Calm -- 29.44 in997.0 mb 0.00 in0.0 mm 0.00 in0.0 mm 0.56 in14.2 mm
08:55 PM 54.4°F12.4°C 52.3°F11.3°C 93% Calm Calm 15.0 mph24.1 kmh 29.43 in996.6 mb 0.00 in0.0 mm 0.00 in0.0 mm 0.56 in14.2 mm
09:00 PM 54.3°F12.4°C 52.3°F11.3°C 93% Calm Calm -- 29.43 in996.6 mb 0.00 in0.0 mm 0.00 in0.0 mm 0.56 in14.2 mm
09:05 PM 54.4°F12.4°C 52.3°F11.3°C 93% Calm Calm -- 29.44 in997.0 mb 0.00 in0.0 mm 0.00 in0.0 mm 0.56 in14.2 mm
09:10 PM 54.3°F12.4°C 52.0°F11.1°C 92% Calm Calm -- 29.44 in997.0 mb 0.00 in0.0 mm 0.00 in0.0 mm 0.56 in14.2 mm
09:15 PM 54.3°F12.4°C 52.0°F11.1°C 92% Calm Calm -- 29.44 in997.0 mb 0.00 in0.0 mm 0.00 in0.0 mm 0.56 in14.2 mm
09:20 PM 54.3°F12.4°C 52.0°F11.1°C 92% Calm Calm -- 29.44 in997.0 mb 0.00 in0.0 mm 0.00 in0.0 mm 0.56 in14.2 mm
09:25 PM 54.3°F12.4°C 52.0°F11.1°C 92% Calm Calm -- 29.45 in997.3 mb 0.00 in0.0 mm 0.00 in0.0 mm 0.56 in14.2 mm
09:30 PM 54.4°F12.4°C 52.0°F11.1°C 92% Calm Calm -- 29.45 in997.3 mb 0.00 in0.0 mm 0.00 in0.0 mm 0.56 in14.2 mm
09:35 PM 54.5°F12.5°C 52.2°F11.2°C 92% Calm Calm -- 29.45 in997.3 mb 0.00 in0.0 mm 0.00 in0.0 mm 0.56 in14.2 mm
09:40 PM 54.5°F12.5°C 52.2°F11.2°C 92% Calm Calm -- 29.46 in997.6 mb 0.00 in0.0 mm 0.00 in0.0 mm 0.56 in14.2 mm
09:45 PM 54.6°F12.6°C 52.3°F11.3°C 92% Calm Calm -- 29.45 in997.3 mb 0.00 in0.0 mm 0.00 in0.0 mm 0.56 in14.2 mm
09:50 PM 54.6°F12.6°C 52.2°F11.2°C 91% Calm Calm -- 29.46 in997.6 mb 0.00 in0.0 mm 0.00 in0.0 mm 0.56 in14.2 mm
09:55 PM 54.6°F12.6°C 52.2°F11.2°C 91% Calm Calm -- 29.46 in997.6 mb 0.00 in0.0 mm 0.00 in0.0 mm 0.56 in14.2 mm
10:00 PM 54.7°F12.6°C 52.2°F11.2°C 91% Calm Calm -- 29.46 in997.6 mb 0.00 in0.0 mm 0.00 in0.0 mm 0.56 in14.2 mm
10:05 PM 54.7°F12.6°C 52.2°F11.2°C 91% Calm Calm -- 29.46 in997.6 mb 0.00 in0.0 mm 0.00 in0.0 mm 0.56 in14.2 mm
10:10 PM 54.8°F12.7°C 52.0°F11.1°C 90% Calm Calm -- 29.46 in997.6 mb 0.00 in0.0 mm 0.00 in0.0 mm 0.56 in14.2 mm
10:15 PM 54.9°F12.7°C 51.6°F10.9°C 89% Calm Calm -- 29.46 in997.6 mb 0.00 in0.0 mm 0.00 in0.0 mm 0.56 in14.2 mm
10:20 PM 55.0°F12.8°C 51.8°F11.0°C 89% Calm Calm -- 29.46 in997.6 mb 0.00 in0.0 mm 0.00 in0.0 mm 0.56 in14.2 mm
10:25 PM 55.0°F12.8°C 51.6°F10.9°C 88% Calm Calm -- 29.47 in998.0 mb 0.00 in0.0 mm 0.00 in0.0 mm 0.56 in14.2 mm
10:30 PM 55.0°F12.8°C 51.3°F10.7°C 87% Calm Calm -- 29.47 in998.0 mb 0.00 in0.0 mm 0.00 in0.0 mm 0.56 in14.2 mm
10:35 PM 54.8°F12.7°C 51.1°F10.6°C 87% Calm Calm -- 29.48 in998.3 mb 0.00 in0.0 mm 0.00 in0.0 mm 0.56 in14.2 mm
10:40 PM 54.8°F12.7°C 51.4°F10.8°C 88% Calm Calm -- 29.48 in998.3 mb 0.00 in0.0 mm 0.00 in0.0 mm 0.56 in14.2 mm
10:45 PM 54.7°F12.6°C 50.9°F10.5°C 87% Calm Calm -- 29.48 in998.3 mb 0.00 in0.0 mm 0.00 in0.0 mm 0.56 in14.2 mm
10:50 PM 54.6°F12.6°C 50.9°F10.5°C 87% Calm Calm -- 29.48 in998.3 mb 0.00 in0.0 mm 0.00 in0.0 mm 0.56 in14.2 mm
10:55 PM 54.5°F12.5°C 50.7°F10.4°C 87% Calm Calm -- 29.48 in998.3 mb 0.00 in0.0 mm 0.00 in0.0 mm 0.56 in14.2 mm
11:00 PM 54.4°F12.4°C 50.5°F10.3°C 87% Calm Calm -- 29.48 in998.3 mb 0.00 in0.0 mm 0.00 in0.0 mm 0.56 in14.2 mm
11:05 PM 54.3°F12.4°C 50.2°F10.1°C 86% Calm Calm -- 29.48 in998.3 mb 0.00 in0.0 mm 0.00 in0.0 mm 0.56 in14.2 mm
11:10 PM 54.3°F12.4°C 50.2°F10.1°C 86% Calm Calm -- 29.48 in998.3 mb 0.00 in0.0 mm 0.00 in0.0 mm 0.56 in14.2 mm
11:15 PM 54.2°F12.3°C 50.0°F10.0°C 86% Calm Calm -- 29.48 in998.3 mb 0.00 in0.0 mm 0.00 in0.0 mm 0.56 in14.2 mm
11:20 PM 54.1°F12.3°C 50.0°F10.0°C 86% Calm Calm -- 29.48 in998.3 mb 0.00 in0.0 mm 0.00 in0.0 mm 0.56 in14.2 mm
11:25 PM 54.0°F12.2°C 49.6°F9.8°C 85% Calm Calm -- 29.48 in998.3 mb 0.00 in0.0 mm 0.00 in0.0 mm 0.56 in14.2 mm
11:30 PM 53.9°F12.2°C 49.8°F9.9°C 86% Calm Calm -- 29.48 in998.3 mb 0.00 in0.0 mm 0.00 in0.0 mm 0.56 in14.2 mm
11:35 PM 53.8°F12.1°C 49.6°F9.8°C 86% Calm Calm -- 29.48 in998.3 mb 0.00 in0.0 mm 0.00 in0.0 mm 0.56 in14.2 mm
11:40 PM 53.7°F12.1°C 49.6°F9.8°C 86% Calm Calm -- 29.48 in998.3 mb 0.00 in0.0 mm 0.00 in0.0 mm 0.56 in14.2 mm
11:45 PM 53.6°F12.0°C 49.3°F9.6°C 85% Calm Calm -- 29.48 in998.3 mb 0.00 in0.0 mm 0.00 in0.0 mm 0.56 in14.2 mm
11:50 PM 53.6°F12.0°C 49.3°F9.6°C 85% Calm Calm -- 29.48 in998.3 mb 0.00 in0.0 mm 0.00 in0.0 mm 0.56 in14.2 mm
11:55 PM 53.4°F11.9°C 49.1°F9.5°C 85% Calm Calm -- 29.48 in998.3 mb 0.00 in0.0 mm 0.00 in0.0 mm 0.56 in14.2 mm